sensor_id;sensor_type;location;lat;lon;timestamp;pressure;altitude;pressure_sealevel;temperature;humidity
71057;BME280;58380;48.312;9.246;2023-06-22T05:05:16;93636.25;;;16.66;100.00
71057;BME280;58380;48.312;9.246;2023-06-22T05:07:45;93635.22;;;16.81;100.00
71057;BME280;58380;48.312;9.246;2023-06-22T05:10:13;93637.78;;;17.00;100.00
71057;BME280;58380;48.312;9.246;2023-06-22T05:12:40;93637.53;;;17.24;100.00
71057;BME280;58380;48.312;9.246;2023-06-22T05:15:08;93636.66;;;17.42;100.00
71057;BME280;58380;48.312;9.246;2023-06-22T05:17:35;93631.47;;;17.60;100.00
71057;BME280;58380;48.312;9.246;2023-06-22T05:20:01;93627.91;;;17.87;100.00
71057;BME280;58380;48.312;9.246;2023-06-22T05:22:31;93629.63;;;18.05;100.00
71057;BME280;58380;48.312;9.246;2023-06-22T05:24:56;93633.69;;;18.25;100.00
71057;BME280;58380;48.312;9.246;2023-06-22T05:27:21;93632.19;;;18.42;100.00
71057;BME280;58380;48.312;9.246;2023-06-22T05:29:47;93631.03;;;18.57;100.00
71057;BME280;58380;48.312;9.246;2023-06-22T05:32:12;93637.38;;;18.69;100.00
71057;BME280;58380;48.312;9.246;2023-06-22T05:34:38;93632.25;;;18.82;100.00
71057;BME280;58380;48.312;9.246;2023-06-22T05:37:03;93630.28;;;18.96;99.03
71057;BME280;58380;48.312;9.246;2023-06-22T05:39:29;93634.41;;;19.11;99.63
71057;BME280;58380;48.312;9.246;2023-06-22T05:41:54;93631.31;;;19.26;97.21
71057;BME280;58380;48.312;9.246;2023-06-22T05:44:20;93640.00;;;19.40;96.41
71057;BME280;58380;48.312;9.246;2023-06-22T05:46:45;93643.81;;;19.57;96.03
71057;BME280;58380;48.312;9.246;2023-06-22T05:49:13;93628.56;;;19.75;95.10
71057;BME280;58380;48.312;9.246;2023-06-22T05:51:39;93633.44;;;19.90;93.76
71057;BME280;58380;48.312;9.246;2023-06-22T05:54:05;93636.13;;;19.99;94.77
71057;BME280;58380;48.312;9.246;2023-06-22T05:56:31;93641.94;;;20.01;93.89
71057;BME280;58380;48.312;9.246;2023-06-22T05:58:56;93643.53;;;20.11;92.75
71057;BME280;58380;48.312;9.246;2023-06-22T06:01:22;93632.94;;;20.14;91.52
71057;BME280;58380;48.312;9.246;2023-06-22T06:03:47;93651.72;;;20.23;91.87
71057;BME280;58380;48.312;9.246;2023-06-22T06:06:14;93648.22;;;20.31;90.25
71057;BME280;58380;48.312;9.246;2023-06-22T06:08:40;93640.81;;;20.37;88.79
71057;BME280;58380;48.312;9.246;2023-06-22T06:11:06;93639.06;;;20.50;90.87
71057;BME280;58380;48.312;9.246;2023-06-22T06:13:31;93642.22;;;20.60;89.81
71057;BME280;58380;48.312;9.246;2023-06-22T06:15:56;93638.41;;;20.70;89.77
71057;BME280;58380;48.312;9.246;2023-06-22T06:18:22;93646.91;;;20.72;87.17
71057;BME280;58380;48.312;9.246;2023-06-22T06:20:47;93645.78;;;20.73;88.26
71057;BME280;58380;48.312;9.246;2023-06-22T06:23:13;93637.56;;;20.87;86.79
71057;BME280;58380;48.312;9.246;2023-06-22T06:25:39;93643.34;;;20.89;86.58
71057;BME280;58380;48.312;9.246;2023-06-22T06:28:04;93638.16;;;20.93;86.63
71057;BME280;58380;48.312;9.246;2023-06-22T06:30:29;93635.22;;;21.06;85.76
71057;BME280;58380;48.312;9.246;2023-06-22T06:32:55;93632.03;;;21.22;86.61
71057;BME280;58380;48.312;9.246;2023-06-22T06:35:20;93619.47;;;21.35;84.82
71057;BME280;58380;48.312;9.246;2023-06-22T06:37:47;93625.41;;;21.49;85.07
71057;BME280;58380;48.312;9.246;2023-06-22T06:40:15;93631.50;;;21.58;82.33
71057;BME280;58380;48.312;9.246;2023-06-22T06:42:43;93628.88;;;21.49;83.71
71057;BME280;58380;48.312;9.246;2023-06-22T06:45:19;93625.03;;;21.59;84.73
71057;BME280;58380;48.312;9.246;2023-06-22T06:47:47;93618.03;;;21.67;85.69
71057;BME280;58380;48.312;9.246;2023-06-22T06:50:13;93616.56;;;21.90;83.76
71057;BME280;58380;48.312;9.246;2023-06-22T06:52:38;93627.19;;;22.08;82.08
71057;BME280;58380;48.312;9.246;2023-06-22T06:55:04;93631.22;;;22.14;81.98
71057;BME280;58380;48.312;9.246;2023-06-22T06:57:32;93621.78;;;22.29;81.78
71057;BME280;58380;48.312;9.246;2023-06-22T06:59:58;93622.81;;;22.36;82.27
71057;BME280;58380;48.312;9.246;2023-06-22T07:03:16;93625.91;;;22.47;80.11
71057;BME280;58380;48.312;9.246;2023-06-22T07:05:41;93625.06;;;22.34;78.39
71057;BME280;58380;48.312;9.246;2023-06-22T07:08:07;93628.81;;;22.21;78.26
71057;BME280;58380;48.312;9.246;2023-06-22T07:10:32;93633.09;;;22.22;80.35
71057;BME280;58380;48.312;9.246;2023-06-22T07:12:58;93627.88;;;22.38;80.33
71057;BME280;58380;48.312;9.246;2023-06-22T07:15:23;93624.91;;;22.52;81.71
71057;BME280;58380;48.312;9.246;2023-06-22T07:17:48;93627.84;;;22.59;78.17
71057;BME280;58380;48.312;9.246;2023-06-22T07:20:14;93625.47;;;22.57;81.73
71057;BME280;58380;48.312;9.246;2023-06-22T07:22:39;93619.97;;;22.66;79.24
71057;BME280;58380;48.312;9.246;2023-06-22T07:25:06;93618.00;;;22.88;80.90
71057;BME280;58380;48.312;9.246;2023-06-22T07:27:38;93619.16;;;23.11;82.63
71057;BME280;58380;48.312;9.246;2023-06-22T07:30:08;93604.69;;;23.28;77.02
71057;BME280;58380;48.312;9.246;2023-06-22T07:32:34;93601.41;;;23.47;77.17
71057;BME280;58380;48.312;9.246;2023-06-22T07:34:59;93596.88;;;23.63;76.47
71057;BME280;58380;48.312;9.246;2023-06-22T07:37:24;93592.72;;;23.78;75.96
71057;BME280;58380;48.312;9.246;2023-06-22T07:39:52;93598.44;;;23.89;75.01
71057;BME280;58380;48.312;9.246;2023-06-22T07:42:18;93599.97;;;24.02;73.15
71057;BME280;58380;48.312;9.246;2023-06-22T07:44:44;93593.88;;;24.05;73.13
71057;BME280;58380;48.312;9.246;2023-06-22T07:47:09;93589.91;;;24.15;74.79
71057;BME280;58380;48.312;9.246;2023-06-22T07:49:34;93586.81;;;24.29;72.33
71057;BME280;58380;48.312;9.246;2023-06-22T07:52:00;93591.25;;;24.37;72.07
71057;BME280;58380;48.312;9.246;2023-06-22T07:54:26;93589.44;;;24.41;72.32
71057;BME280;58380;48.312;9.246;2023-06-22T07:56:52;93593.47;;;24.47;72.36
71057;BME280;58380;48.312;9.246;2023-06-22T07:59:17;93592.78;;;24.50;72.24
71057;BME280;58380;48.312;9.246;2023-06-22T08:01:43;93589.50;;;24.57;72.51
71057;BME280;58380;48.312;9.246;2023-06-22T08:04:08;93587.13;;;24.56;70.15
71057;BME280;58380;48.312;9.246;2023-06-22T08:06:33;93576.97;;;24.65;69.74
71057;BME280;58380;48.312;9.246;2023-06-22T08:08:59;93576.69;;;24.70;70.34
71057;BME280;58380;48.312;9.246;2023-06-22T08:11:24;93577.41;;;24.83;70.91
71057;BME280;58380;48.312;9.246;2023-06-22T08:13:50;93591.59;;;24.95;70.01
71057;BME280;58380;48.312;9.246;2023-06-22T08:16:16;93585.59;;;25.02;68.07
71057;BME280;58380;48.312;9.246;2023-06-22T08:18:41;93586.97;;;25.12;68.37
71057;BME280;58380;48.312;9.246;2023-06-22T08:21:06;93593.59;;;25.14;69.20
71057;BME280;58380;48.312;9.246;2023-06-22T08:23:32;93597.97;;;25.19;66.55
71057;BME280;58380;48.312;9.246;2023-06-22T08:25:57;93605.50;;;25.13;65.65
71057;BME280;58380;48.312;9.246;2023-06-22T08:28:22;93618.25;;;24.97;67.64
71057;BME280;58380;48.312;9.246;2023-06-22T08:30:48;93625.22;;;24.98;69.40
71057;BME280;58380;48.312;9.246;2023-06-22T08:33:13;93639.34;;;25.07;66.72
71057;BME280;58380;48.312;9.246;2023-06-22T08:35:38;93647.38;;;25.04;66.98
71057;BME280;58380;48.312;9.246;2023-06-22T08:38:04;93658.41;;;24.83;66.83
71057;BME280;58380;48.312;9.246;2023-06-22T08:40:29;93668.28;;;24.63;68.76
71057;BME280;58380;48.312;9.246;2023-06-22T08:42:55;93667.81;;;24.32;69.87
71057;BME280;58380;48.312;9.246;2023-06-22T08:45:20;93670.19;;;24.34;69.99
71057;BME280;58380;48.312;9.246;2023-06-22T08:47:47;93669.69;;;24.44;70.87
71057;BME280;58380;48.312;9.246;2023-06-22T08:50:12;93681.00;;;24.62;71.62
71057;BME280;58380;48.312;9.246;2023-06-22T08:52:38;93688.00;;;24.79;69.33
71057;BME280;58380;48.312;9.246;2023-06-22T08:55:06;93680.69;;;24.95;69.07
71057;BME280;58380;48.312;9.246;2023-06-22T08:57:32;93673.03;;;24.97;68.05
71057;BME280;58380;48.312;9.246;2023-06-22T08:59:57;93664.78;;;25.06;67.83
71057;BME280;58380;48.312;9.246;2023-06-22T09:02:24;93664.63;;;25.31;67.14
71057;BME280;58380;48.312;9.246;2023-06-22T09:04:49;93648.47;;;25.50;67.73
71057;BME280;58380;48.312;9.246;2023-06-22T09:07:20;93641.97;;;25.87;69.28
71057;BME280;58380;48.312;9.246;2023-06-22T09:09:47;93632.47;;;26.12;68.11
71057;BME280;58380;48.312;9.246;2023-06-22T09:12:12;93632.09;;;26.33;67.32
71057;BME280;58380;48.312;9.246;2023-06-22T09:14:38;93619.69;;;26.52;64.96
71057;BME280;58380;48.312;9.246;2023-06-22T09:17:03;93616.56;;;26.69;66.80
71057;BME280;58380;48.312;9.246;2023-06-22T09:19:29;93622.28;;;26.87;64.47
71057;BME280;58380;48.312;9.246;2023-06-22T09:21:54;93621.38;;;27.02;63.85
71057;BME280;58380;48.312;9.246;2023-06-22T09:24:19;93622.34;;;27.14;64.08
71057;BME280;58380;48.312;9.246;2023-06-22T09:26:44;93629.50;;;27.02;58.87
71057;BME280;58380;48.312;9.246;2023-06-22T09:29:10;93624.03;;;26.99;62.12
71057;BME280;58380;48.312;9.246;2023-06-22T09:31:35;93614.41;;;27.01;64.62
71057;BME280;58380;48.312;9.246;2023-06-22T09:34:02;93603.94;;;27.23;63.86
71057;BME280;58380;48.312;9.246;2023-06-22T09:36:27;93602.28;;;27.41;62.47
71057;BME280;58380;48.312;9.246;2023-06-22T09:38:52;93600.59;;;27.60;61.87
71057;BME280;58380;48.312;9.246;2023-06-22T09:41:20;93591.69;;;27.59;59.03
71057;BME280;58380;48.312;9.246;2023-06-22T09:43:45;93593.00;;;27.69;59.26
71057;BME280;58380;48.312;9.246;2023-06-22T09:46:10;93580.47;;;27.87;61.04
71057;BME280;58380;48.312;9.246;2023-06-22T09:48:36;93578.63;;;27.95;57.70
71057;BME280;58380;48.312;9.246;2023-06-22T09:51:01;93584.75;;;27.88;55.32
71057;BME280;58380;48.312;9.246;2023-06-22T09:53:26;93583.56;;;27.86;58.67
71057;BME280;58380;48.312;9.246;2023-06-22T09:55:52;93579.06;;;28.01;61.46
71057;BME280;58380;48.312;9.246;2023-06-22T09:58:18;93577.97;;;28.05;57.00
71057;BME280;58380;48.312;9.246;2023-06-22T10:00:43;93576.69;;;27.95;55.50
71057;BME280;58380;48.312;9.246;2023-06-22T10:03:08;93579.06;;;28.01;57.83
71057;BME280;58380;48.312;9.246;2023-06-22T10:05:34;93592.41;;;28.13;59.80
71057;BME280;58380;48.312;9.246;2023-06-22T10:07:59;93582.47;;;28.24;59.76
71057;BME280;58380;48.312;9.246;2023-06-22T10:10:24;93568.25;;;28.38;57.15
71057;BME280;58380;48.312;9.246;2023-06-22T10:12:56;93567.31;;;28.53;59.90
71057;BME280;58380;48.312;9.246;2023-06-22T10:15:23;93568.94;;;28.65;57.02
71057;BME280;58380;48.312;9.246;2023-06-22T10:17:49;93567.88;;;28.73;58.50
71057;BME280;58380;48.312;9.246;2023-06-22T10:20:14;93564.75;;;28.71;56.65
71057;BME280;58380;48.312;9.246;2023-06-22T10:22:41;93555.09;;;28.77;55.64
71057;BME280;58380;48.312;9.246;2023-06-22T10:25:07;93558.31;;;28.90;56.99
71057;BME280;58380;48.312;9.246;2023-06-22T10:27:33;93553.34;;;29.03;55.29
71057;BME280;58380;48.312;9.246;2023-06-22T10:29:59;93563.22;;;29.18;53.69
71057;BME280;58380;48.312;9.246;2023-06-22T10:32:24;93546.16;;;29.21;54.00
71057;BME280;58380;48.312;9.246;2023-06-22T10:34:49;93564.13;;;29.40;52.96
71057;BME280;58380;48.312;9.246;2023-06-22T10:37:15;93551.38;;;29.48;53.80
71057;BME280;58380;48.312;9.246;2023-06-22T10:39:40;93560.34;;;29.52;52.90
71057;BME280;58380;48.312;9.246;2023-06-22T10:42:05;93558.78;;;29.55;52.15
71057;BME280;58380;48.312;9.246;2023-06-22T10:44:31;93557.28;;;29.64;52.50
71057;BME280;58380;48.312;9.246;2023-06-22T10:46:56;93549.19;;;29.72;51.73
71057;BME280;58380;48.312;9.246;2023-06-22T10:49:22;93554.28;;;29.77;52.14
71057;BME280;58380;48.312;9.246;2023-06-22T10:51:47;93561.72;;;29.87;52.54
71057;BME280;58380;48.312;9.246;2023-06-22T10:54:12;93554.75;;;29.93;52.26
71057;BME280;58380;48.312;9.246;2023-06-22T10:56:39;93558.22;;;29.90;50.99
71057;BME280;58380;48.312;9.246;2023-06-22T10:59:04;93558.66;;;30.03;50.30
71057;BME280;58380;48.312;9.246;2023-06-22T11:01:30;93562.22;;;30.10;52.78
71057;BME280;58380;48.312;9.246;2023-06-22T11:03:56;93557.56;;;30.18;51.79
71057;BME280;58380;48.312;9.246;2023-06-22T11:06:22;93564.25;;;30.28;52.17
71057;BME280;58380;48.312;9.246;2023-06-22T11:08:47;93553.38;;;30.28;49.53
71057;BME280;58380;48.312;9.246;2023-06-22T11:11:12;93551.72;;;30.20;50.10
71057;BME280;58380;48.312;9.246;2023-06-22T11:13:37;93543.16;;;30.18;48.43
71057;BME280;58380;48.312;9.246;2023-06-22T11:16:03;93538.16;;;30.27;49.19
71057;BME280;58380;48.312;9.246;2023-06-22T11:18:28;93537.41;;;30.34;49.46
71057;BME280;58380;48.312;9.246;2023-06-22T11:20:53;93540.91;;;30.38;48.40
71057;BME280;58380;48.312;9.246;2023-06-22T11:23:19;93540.13;;;30.37;48.99
71057;BME280;58380;48.312;9.246;2023-06-22T11:25:44;93545.94;;;30.25;44.79
71057;BME280;58380;48.312;9.246;2023-06-22T11:28:11;93541.97;;;30.04;46.66
71057;BME280;58380;48.312;9.246;2023-06-22T11:30:36;93555.91;;;29.88;47.93
71057;BME280;58380;48.312;9.246;2023-06-22T11:33:02;93562.41;;;29.70;49.22
71057;BME280;58380;48.312;9.246;2023-06-22T11:36:00;93564.88;;;29.34;50.76
71057;BME280;58380;48.312;9.246;2023-06-22T11:38:26;93557.03;;;29.25;54.92
71057;BME280;58380;48.312;9.246;2023-06-22T11:40:51;93535.34;;;29.29;51.84
71057;BME280;58380;48.312;9.246;2023-06-22T11:43:16;93518.00;;;29.51;52.59
71057;BME280;58380;48.312;9.246;2023-06-22T11:45:42;93502.19;;;29.75;52.55
71057;BME280;58380;48.312;9.246;2023-06-22T11:48:07;93494.88;;;29.97;52.31
71057;BME280;58380;48.312;9.246;2023-06-22T11:50:32;93505.03;;;30.14;51.84
71057;BME280;58380;48.312;9.246;2023-06-22T11:53:01;93524.91;;;30.22;50.87
71057;BME280;58380;48.312;9.246;2023-06-22T11:55:29;93539.38;;;30.33;49.35
71057;BME280;58380;48.312;9.246;2023-06-22T11:57:55;93551.81;;;30.34;49.80
71057;BME280;58380;48.312;9.246;2023-06-22T12:00:23;93552.97;;;30.37;50.36
71057;BME280;58380;48.312;9.246;2023-06-22T12:02:49;93550.63;;;30.35;47.98
71057;BME280;58380;48.312;9.246;2023-06-22T12:05:16;93545.91;;;30.21;45.90
71057;BME280;58380;48.312;9.246;2023-06-22T12:07:42;93542.38;;;30.17;48.17
71057;BME280;58380;48.312;9.246;2023-06-22T12:10:08;93550.81;;;29.87;50.48
71057;BME280;58380;48.312;9.246;2023-06-22T12:12:33;93546.47;;;29.68;48.82
71057;BME280;58380;48.312;9.246;2023-06-22T12:14:59;93551.03;;;29.60;51.20
71057;BME280;58380;48.312;9.246;2023-06-22T12:17:28;93551.81;;;29.57;49.67
71057;BME280;58380;48.312;9.246;2023-06-22T12:19:53;93566.22;;;29.65;51.94
71057;BME280;58380;48.312;9.246;2023-06-22T12:22:19;93565.47;;;29.64;51.74
71057;BME280;58380;48.312;9.246;2023-06-22T12:24:44;93568.13;;;29.57;53.02
71057;BME280;58380;48.312;9.246;2023-06-22T12:27:09;93573.09;;;29.44;53.35
71057;BME280;58380;48.312;9.246;2023-06-22T12:29:35;93577.25;;;29.24;52.33
71057;BME280;58380;48.312;9.246;2023-06-22T12:32:00;93576.41;;;29.16;53.85
71057;BME280;58380;48.312;9.246;2023-06-22T12:34:25;93574.66;;;28.97;51.23
71057;BME280;58380;48.312;9.246;2023-06-22T12:36:51;93570.69;;;28.84;50.88
71057;BME280;58380;48.312;9.246;2023-06-22T12:39:19;93574.94;;;28.81;52.64
71057;BME280;58380;48.312;9.246;2023-06-22T12:41:44;93575.63;;;28.75;52.82
71057;BME280;58380;48.312;9.246;2023-06-22T12:44:09;93575.28;;;28.80;51.81
71057;BME280;58380;48.312;9.246;2023-06-22T12:46:34;93563.38;;;28.95;52.63
71057;BME280;58380;48.312;9.246;2023-06-22T12:49:02;93557.91;;;28.88;52.12
71057;BME280;58380;48.312;9.246;2023-06-22T12:51:29;93552.09;;;28.90;53.45
71057;BME280;58380;48.312;9.246;2023-06-22T12:53:54;93563.69;;;28.83;52.31
71057;BME280;58380;48.312;9.246;2023-06-22T12:56:20;93564.75;;;28.75;53.42
71057;BME280;58380;48.312;9.246;2023-06-22T12:58:45;93559.34;;;28.75;54.54
71057;BME280;58380;48.312;9.246;2023-06-22T13:01:10;93561.59;;;28.66;53.90
71057;BME280;58380;48.312;9.246;2023-06-22T13:03:36;93564.31;;;28.66;55.42
71057;BME280;58380;48.312;9.246;2023-06-22T13:06:01;93553.50;;;28.73;56.86
71057;BME280;58380;48.312;9.246;2023-06-22T13:08:27;93564.75;;;28.75;54.83
71057;BME280;58380;48.312;9.246;2023-06-22T13:10:52;93557.06;;;28.80;55.83
71057;BME280;58380;48.312;9.246;2023-06-22T13:13:17;93553.56;;;28.80;53.43
71057;BME280;58380;48.312;9.246;2023-06-22T13:15:43;93555.94;;;28.85;55.33
71057;BME280;58380;48.312;9.246;2023-06-22T13:18:08;93552.06;;;28.86;55.78
71057;BME280;58380;48.312;9.246;2023-06-22T13:20:33;93557.91;;;28.88;54.25
71057;BME280;58380;48.312;9.246;2023-06-22T13:22:59;93553.28;;;28.92;57.29
71057;BME280;58380;48.312;9.246;2023-06-22T13:25:24;93551.38;;;28.96;58.74
71057;BME280;58380;48.312;9.246;2023-06-22T13:27:51;93537.38;;;28.91;54.57
71057;BME280;58380;48.312;9.246;2023-06-22T13:30:16;93537.31;;;28.84;60.31
71057;BME280;58380;48.312;9.246;2023-06-22T13:32:42;93517.78;;;28.71;59.33
71057;BME280;58380;48.312;9.246;2023-06-22T13:35:11;93515.78;;;28.64;62.22
71057;BME280;58380;48.312;9.246;2023-06-22T13:37:37;93525.06;;;28.59;61.85
71057;BME280;58380;48.312;9.246;2023-06-22T13:40:02;93525.75;;;28.53;58.39
71057;BME280;58380;48.312;9.246;2023-06-22T13:42:31;93529.22;;;28.50;51.97
71057;BME280;58380;48.312;9.246;2023-06-22T13:44:56;93521.13;;;28.53;42.32
71057;BME280;58380;48.312;9.246;2023-06-22T13:47:22;93521.06;;;28.46;42.19
71057;BME280;58380;48.312;9.246;2023-06-22T13:49:47;93525.31;;;28.47;44.14
71057;BME280;58380;48.312;9.246;2023-06-22T13:52:13;93508.69;;;28.49;44.71
71057;BME280;58380;48.312;9.246;2023-06-22T13:54:38;93507.03;;;28.44;42.18
71057;BME280;58380;48.312;9.246;2023-06-22T13:57:03;93508.13;;;28.36;42.54
71057;BME280;58380;48.312;9.246;2023-06-22T13:59:29;93494.44;;;28.25;43.83
71057;BME280;58380;48.312;9.246;2023-06-22T14:01:55;93498.72;;;28.26;47.05
71057;BME280;58380;48.312;9.246;2023-06-22T14:04:21;93490.25;;;28.31;48.90
71057;BME280;58380;48.312;9.246;2023-06-22T14:06:48;93494.16;;;28.34;50.99
71057;BME280;58380;48.312;9.246;2023-06-22T14:09:13;93484.34;;;28.22;52.38
71057;BME280;58380;48.312;9.246;2023-06-22T14:11:39;93484.00;;;28.27;53.81
71057;BME280;58380;48.312;9.246;2023-06-22T14:14:04;93483.25;;;28.30;54.29
71057;BME280;58380;48.312;9.246;2023-06-22T14:16:29;93487.19;;;28.36;51.86
71057;BME280;58380;48.312;9.246;2023-06-22T14:18:55;93492.06;;;28.57;51.92
71057;BME280;58380;48.312;9.246;2023-06-22T14:21:20;93487.03;;;28.59;48.72
71057;BME280;58380;48.312;9.246;2023-06-22T14:23:45;93482.88;;;28.73;47.98
71057;BME280;58380;48.312;9.246;2023-06-22T14:26:14;93489.38;;;29.06;48.75
71057;BME280;58380;48.312;9.246;2023-06-22T14:28:43;93486.31;;;29.14;46.53
71057;BME280;58380;48.312;9.246;2023-06-22T14:31:12;93490.00;;;28.92;46.73
71057;BME280;58380;48.312;9.246;2023-06-22T14:33:39;93501.16;;;28.76;45.72
71057;BME280;58380;48.312;9.246;2023-06-22T14:36:04;93500.28;;;28.65;39.57
71057;BME280;58380;48.312;9.246;2023-06-22T14:38:30;93508.88;;;28.74;39.53
71057;BME280;58380;48.312;9.246;2023-06-22T14:40:55;93501.16;;;28.79;40.25
71057;BME280;58380;48.312;9.246;2023-06-22T14:43:20;93498.44;;;28.79;38.58
71057;BME280;58380;48.312;9.246;2023-06-22T14:45:46;93501.69;;;28.96;40.21
71057;BME280;58380;48.312;9.246;2023-06-22T14:48:11;93497.53;;;29.09;38.01
71057;BME280;58380;48.312;9.246;2023-06-22T14:50:36;93503.50;;;29.33;38.06
71057;BME280;58380;48.312;9.246;2023-06-22T14:53:01;93496.88;;;29.30;36.03
71057;BME280;58380;48.312;9.246;2023-06-22T14:55:27;93492.63;;;29.33;36.47
71057;BME280;58380;48.312;9.246;2023-06-22T14:57:52;93492.25;;;29.34;36.99
71057;BME280;58380;48.312;9.246;2023-06-22T15:00:18;93494.91;;;29.23;35.95
71057;BME280;58380;48.312;9.246;2023-06-22T15:02:43;93504.50;;;29.10;35.07
71057;BME280;58380;48.312;9.246;2023-06-22T15:05:09;93501.66;;;28.92;36.20
71057;BME280;58380;48.312;9.246;2023-06-22T15:07:34;93504.22;;;28.71;35.80
71057;BME280;58380;48.312;9.246;2023-06-22T15:09:59;93493.25;;;28.60;37.72
71057;BME280;58380;48.312;9.246;2023-06-22T15:12:25;93506.88;;;28.67;38.33
71057;BME280;58380;48.312;9.246;2023-06-22T15:14:50;93497.63;;;28.72;37.80
71057;BME280;58380;48.312;9.246;2023-06-22T15:17:15;93493.56;;;28.51;38.05
71057;BME280;58380;48.312;9.246;2023-06-22T15:19:41;93499.50;;;28.23;38.94
71057;BME280;58380;48.312;9.246;2023-06-22T15:22:06;93500.81;;;28.03;38.98
71057;BME280;58380;48.312;9.246;2023-06-22T15:24:32;93494.56;;;27.99;40.22
71057;BME280;58380;48.312;9.246;2023-06-22T15:26:58;93495.69;;;27.94;42.42
71057;BME280;58380;48.312;9.246;2023-06-22T15:29:24;93501.84;;;27.91;42.00
71057;BME280;58380;48.312;9.246;2023-06-22T15:31:51;93495.97;;;27.85;43.09
71057;BME280;58380;48.312;9.246;2023-06-22T15:34:16;93487.13;;;27.62;44.28
71057;BME280;58380;48.312;9.246;2023-06-22T15:36:42;93494.44;;;27.58;44.06
71057;BME280;58380;48.312;9.246;2023-06-22T15:39:07;93497.38;;;27.45;46.09
71057;BME280;58380;48.312;9.246;2023-06-22T15:41:32;93484.44;;;27.31;44.62
71057;BME280;58380;48.312;9.246;2023-06-22T15:43:58;93490.78;;;27.16;45.16
71057;BME280;58380;48.312;9.246;2023-06-22T15:46:23;93489.84;;;27.05;46.12
71057;BME280;58380;48.312;9.246;2023-06-22T15:48:49;93479.31;;;27.00;47.18
71057;BME280;58380;48.312;9.246;2023-06-22T15:51:14;93476.13;;;26.94;49.52
71057;BME280;58380;48.312;9.246;2023-06-22T15:53:42;93478.59;;;26.76;50.22
71057;BME280;58380;48.312;9.246;2023-06-22T15:56:07;93493.94;;;26.68;53.17
71057;BME280;58380;48.312;9.246;2023-06-22T15:58:36;93490.31;;;26.61;55.51
71057;BME280;58380;48.312;9.246;2023-06-22T16:01:05;93490.41;;;26.45;55.42
71057;BME280;58380;48.312;9.246;2023-06-22T16:03:30;93483.19;;;26.30;55.47
71057;BME280;58380;48.312;9.246;2023-06-22T16:05:56;93474.91;;;26.19;56.21
71057;BME280;58380;48.312;9.246;2023-06-22T16:08:22;93458.91;;;26.10;59.05
71057;BME280;58380;48.312;9.246;2023-06-22T16:10:50;93439.13;;;26.06;61.00
71057;BME280;58380;48.312;9.246;2023-06-22T16:13:16;93432.16;;;26.05;60.19
71057;BME280;58380;48.312;9.246;2023-06-22T16:15:41;93432.00;;;25.98;56.79
71057;BME280;58380;48.312;9.246;2023-06-22T16:18:06;93431.25;;;25.97;59.05
71057;BME280;58380;48.312;9.246;2023-06-22T16:20:32;93438.19;;;25.98;57.08
71057;BME280;58380;48.312;9.246;2023-06-22T16:22:58;93439.66;;;25.92;54.28
71057;BME280;58380;48.312;9.246;2023-06-22T16:25:23;93445.06;;;25.92;54.40
71057;BME280;58380;48.312;9.246;2023-06-22T16:27:48;93459.56;;;25.84;53.06
71057;BME280;58380;48.312;9.246;2023-06-22T16:30:14;93479.06;;;25.74;53.25
71057;BME280;58380;48.312;9.246;2023-06-22T16:32:39;93486.47;;;25.57;52.19
71057;BME280;58380;48.312;9.246;2023-06-22T16:35:14;93489.78;;;25.51;52.21
71057;BME280;58380;48.312;9.246;2023-06-22T16:37:40;93488.88;;;25.43;53.03
71057;BME280;58380;48.312;9.246;2023-06-22T16:40:05;93477.56;;;25.37;53.03
71057;BME280;58380;48.312;9.246;2023-06-22T16:42:34;93473.94;;;25.30;52.56
71057;BME280;58380;48.312;9.246;2023-06-22T16:44:59;93470.31;;;25.22;52.86
71057;BME280;58380;48.312;9.246;2023-06-22T16:47:26;93474.50;;;25.20;54.28
71057;BME280;58380;48.312;9.246;2023-06-22T16:49:52;93469.81;;;25.16;54.08
71057;BME280;58380;48.312;9.246;2023-06-22T16:52:17;93471.25;;;25.14;53.64
71057;BME280;58380;48.312;9.246;2023-06-22T16:54:43;93476.66;;;25.14;54.12
71057;BME280;58380;48.312;9.246;2023-06-22T16:57:11;93465.34;;;25.08;53.14
71057;BME280;58380;48.312;9.246;2023-06-22T16:59:38;93464.06;;;25.02;54.43
71057;BME280;58380;48.312;9.246;2023-06-22T17:02:04;93473.22;;;24.97;54.29
71057;BME280;58380;48.312;9.246;2023-06-22T17:04:30;93474.63;;;24.91;54.36
71057;BME280;58380;48.312;9.246;2023-06-22T17:07:09;93471.06;;;24.87;54.81
71057;BME280;58380;48.312;9.246;2023-06-22T17:09:38;93481.69;;;24.80;53.51
71057;BME280;58380;48.312;9.246;2023-06-22T17:12:05;93482.41;;;24.77;53.67
71057;BME280;58380;48.312;9.246;2023-06-22T17:14:32;93480.91;;;24.80;53.65
71057;BME280;58380;48.312;9.246;2023-06-22T17:16:57;93487.69;;;24.73;54.79
71057;BME280;58380;48.312;9.246;2023-06-22T17:19:23;93493.28;;;24.65;53.69
71057;BME280;58380;48.312;9.246;2023-06-22T17:21:48;93495.22;;;24.64;54.50
71057;BME280;58380;48.312;9.246;2023-06-22T17:24:16;93491.31;;;24.62;53.23
71057;BME280;58380;48.312;9.246;2023-06-22T17:26:47;93491.97;;;24.59;53.82
71057;BME280;58380;48.312;9.246;2023-06-22T17:29:19;93506.88;;;24.52;53.50
71057;BME280;58380;48.312;9.246;2023-06-22T17:31:45;93503.66;;;24.47;54.10
71057;BME280;58380;48.312;9.246;2023-06-22T17:34:12;93512.31;;;24.40;54.47
71057;BME280;58380;48.312;9.246;2023-06-22T17:36:44;93529.22;;;24.37;54.19
71057;BME280;58380;48.312;9.246;2023-06-22T17:39:11;93543.66;;;24.29;52.82
71057;BME280;58380;48.312;9.246;2023-06-22T17:41:38;93558.50;;;24.23;53.49
71057;BME280;58380;48.312;9.246;2023-06-22T17:44:04;93577.09;;;24.12;51.52
71057;BME280;58380;48.312;9.246;2023-06-22T17:46:34;93591.53;;;24.04;49.63
71057;BME280;58380;48.312;9.246;2023-06-22T17:49:00;93616.91;;;24.03;49.06
71057;BME280;58380;48.312;9.246;2023-06-22T17:51:26;93618.94;;;23.94;48.61
71057;BME280;58380;48.312;9.246;2023-06-22T17:53:51;93634.94;;;23.86;47.50
71057;BME280;58380;48.312;9.246;2023-06-22T17:56:17;93638.22;;;23.67;49.10
71057;BME280;58380;48.312;9.246;2023-06-22T17:58:49;93651.16;;;23.50;54.29